Soquel, California
Current Conditions -  °F | °C
As of 9:53 AM on Wednesday 28 Jan 2015 (Local Time) from KWVI Reporting Station
Clear Clear  
Wind Chill: 16°   Ceiling: Unl
Heat Index: 16°   Visibility: 10mi
Dew Point:   Wind: 0mph
Humidity: 67%   Direction: NA
Pressure: 30.25"   Gusts: NA
Location:  36.99°N, 121.95°W
Report Text: KWVI 281753Z AUTO 00000KT 10SM CLR 16/09 A3025 RMK AO2 SLP244 T01560094 10156 20056 50008
Loading
Personal Weather Stations






























Interactive Weather Map New forecast layout! Learn more

10-Day Weather Forecast

Advertisements
Track Severe Weather on mobile